Time;durP1;ratioP1;P1;durP2;ratioP2;P2;SDS_P1;SDS_P2;PMS_P1;PMS_P2;Temp;Humidity;BMP_temperature;BMP_pressure;BME280_temperature;BME280_humidity;BME280_pressure;Samples;Min_cycle;Max_cycle;Signal;HPM_P1;HPM_P2
2022/08/16 00:00:29;;;;;;;7.32;4.13;;;21.10;99.90;;;;;;4982506;28;20034;-58
2022/08/16 00:02:56;;;;;;;6.60;4.30;;;21.20;99.90;;;;;;4983868;28;20034;-57
2022/08/16 00:05:24;;;;;;;7.15;4.30;;;20.80;99.90;;;;;;4980521;28;20026;-56
2022/08/16 00:07:50;;;;;;;6.25;4.28;;;21.00;99.90;;;;;;4981912;28;20026;-58
2022/08/16 00:10:19;;;;;;;5.72;4.10;;;21.10;99.90;;;;;;4980745;28;20037;-56
2022/08/16 00:12:45;;;;;;;5.40;4.30;;;21.00;99.90;;;;;;4985594;28;20031;-57
2022/08/16 00:15:29;;;;;;;6.43;4.53;;;21.00;99.90;;;;;;4982004;28;20061;-57
2022/08/16 00:17:54;;;;;;;6.22;3.85;;;21.10;99.90;;;;;;4983959;28;20029;-57
2022/08/16 00:20:21;;;;;;;7.25;4.15;;;21.00;99.90;;;;;;4985114;28;20743;-57
2022/08/16 00:22:47;;;;;;;8.73;4.05;;;21.10;99.90;;;;;;4985167;28;20022;-56
2022/08/16 00:25:17;;;;;;;6.05;3.95;;;21.10;99.90;;;;;;4984547;28;20121;-57
2022/08/16 00:27:43;;;;;;;4.70;3.78;;;21.10;99.90;;;;;;4982812;28;20044;-57
2022/08/16 00:30:12;;;;;;;4.93;4.10;;;21.10;99.90;;;;;;4983421;28;20014;-58
2022/08/16 00:32:39;;;;;;;5.75;4.30;;;21.00;99.90;;;;;;4985083;28;20121;-57
2022/08/16 00:35:07;;;;;;;8.18;4.03;;;21.00;99.90;;;;;;4985323;28;20023;-56
2022/08/16 00:37:33;;;;;;;7.15;4.30;;;21.00;99.90;;;;;;4985188;28;20037;-56
2022/08/16 00:39:58;;;;;;;6.03;4.07;;;21.00;99.90;;;;;;4984435;28;20026;-58
2022/08/16 00:42:29;;;;;;;8.00;4.63;;;21.10;99.90;;;;;;4988737;28;20026;-57
2022/08/16 00:45:00;;;;;;;5.68;4.13;;;21.00;99.90;;;;;;4987948;28;20109;-57
2022/08/16 00:47:25;;;;;;;6.10;4.53;;;21.00;99.90;;;;;;4985858;28;20030;-57
2022/08/16 00:49:52;;;;;;;4.55;4.07;;;21.00;99.90;;;;;;4985660;28;20026;-57
2022/08/16 00:52:18;;;;;;;4.40;3.85;;;21.10;99.90;;;;;;4984280;28;20025;-57
2022/08/16 00:54:44;;;;;;;5.22;4.07;;;21.10;99.90;;;;;;4983322;28;20129;-56
2022/08/16 00:57:11;;;;;;;7.95;4.40;;;21.10;99.90;;;;;;4986762;28;20463;-57
2022/08/16 00:59:38;;;;;;;6.22;4.75;;;21.00;99.90;;;;;;4979719;28;20437;-57
2022/08/16 01:02:06;;;;;;;6.65;4.30;;;21.20;99.90;;;;;;4985554;28;20026;-58
2022/08/16 01:04:32;;;;;;;6.90;4.70;;;21.20;99.90;;;;;;4984489;28;20030;-57
2022/08/16 01:07:00;;;;;;;6.65;4.28;;;21.20;99.90;;;;;;4979038;28;20049;-57
2022/08/16 01:09:26;;;;;;;7.68;4.15;;;21.30;99.90;;;;;;4984945;28;20482;-57
2022/08/16 01:11:51;;;;;;;6.68;4.63;;;21.30;99.90;;;;;;4984103;28;20076;-56
2022/08/16 01:14:33;;;;;;;6.10;4.50;;;21.30;99.90;;;;;;4987134;28;20038;-57
2022/08/16 01:17:00;;;;;;;6.85;4.43;;;21.40;99.90;;;;;;4982263;28;20367;-58
2022/08/16 01:19:40;;;;;;;5.38;4.55;;;21.30;99.90;;;;;;4984382;28;20023;-56
2022/08/16 01:22:26;;;;;;;5.50;4.10;;;21.50;99.90;;;;;;4983550;28;20029;-58
2022/08/16 01:24:56;;;;;;;6.93;4.13;;;21.60;99.90;;;;;;4980730;28;20124;-56
2022/08/16 01:27:29;;;;;;;10.00;4.43;;;21.70;99.90;;;;;;4984312;28;20109;-57
2022/08/16 01:30:02;;;;;;;5.63;4.38;;;21.50;99.90;;;;;;4981699;28;20063;-57
2022/08/16 01:32:34;;;;;;;5.90;4.60;;;21.60;99.90;;;;;;4986295;28;20046;-58
2022/08/16 01:35:02;;;;;;;6.07;4.25;;;21.60;99.90;;;;;;4983096;28;20266;-57
2022/08/16 01:37:28;;;;;;;5.13;4.07;;;21.50;99.90;;;;;;4984186;28;20081;-57
2022/08/16 01:39:54;;;;;;;5.93;4.28;;;21.60;99.90;;;;;;4982520;28;20026;-57
2022/08/16 01:42:19;;;;;;;4.90;4.07;;;21.50;99.90;;;;;;4983501;28;20378;-56
2022/08/16 01:44:45;;;;;;;5.72;3.95;;;21.30;99.90;;;;;;4984334;28;20384;-56
2022/08/16 01:47:11;;;;;;;6.22;3.97;;;21.20;99.90;;;;;;4984627;28;20041;-57
2022/08/16 01:49:39;;;;;;;5.65;4.10;;;21.10;99.90;;;;;;4982266;28;20022;-57
2022/08/16 01:52:09;;;;;;;7.38;4.20;;;21.30;99.90;;;;;;4982091;28;20023;-57
2022/08/16 01:54:36;;;;;;;6.18;4.15;;;21.30;99.90;;;;;;4985543;28;20469;-57
2022/08/16 01:57:03;;;;;;;9.98;4.07;;;21.30;99.90;;;;;;4985335;28;20030;-58
2022/08/16 01:59:29;;;;;;;6.25;3.70;;;21.10;99.90;;;;;;4988631;28;20036;-57
2022/08/16 02:01:55;;;;;;;6.40;3.78;;;21.30;99.90;;;;;;4985892;28;20026;-56
2022/08/16 02:04:24;;;;;;;4.72;4.03;;;21.30;99.90;;;;;;4990031;28;20066;-57
2022/08/16 02:06:50;;;;;;;6.07;3.60;;;21.10;99.90;;;;;;4979544;28;20478;-56
2022/08/16 02:09:19;;;;;;;5.45;3.90;;;20.90;99.90;;;;;;4984652;28;20121;-57
2022/08/16 02:11:49;;;;;;;7.05;3.90;;;20.80;99.90;;;;;;4984912;28;20516;-58
2022/08/16 02:14:15;;;;;;;7.03;4.15;;;20.70;99.90;;;;;;4987481;28;20753;-57
2022/08/16 02:16:43;;;;;;;4.30;3.53;;;20.80;99.90;;;;;;4986921;28;20093;-57
2022/08/16 02:19:12;;;;;;;7.93;4.40;;;20.60;99.90;;;;;;4990280;28;20461;-57
2022/08/16 02:21:38;;;;;;;4.90;4.00;;;20.70;99.90;;;;;;4986043;28;20026;-57
2022/08/16 02:24:04;;;;;;;5.90;3.72;;;20.60;99.90;;;;;;4988552;28;20022;-58
2022/08/16 02:26:30;;;;;;;5.75;4.32;;;20.50;99.90;;;;;;4985131;28;20081;-57
2022/08/16 02:28:56;;;;;;;5.30;3.95;;;20.40;99.90;;;;;;4986653;28;20038;-58
2022/08/16 02:31:21;;;;;;;5.60;3.90;;;20.40;99.90;;;;;;4991578;28;20377;-57
2022/08/16 02:33:48;;;;;;;5.60;3.78;;;20.40;99.90;;;;;;4984326;28;20034;-58
2022/08/16 02:36:14;;;;;;;6.50;4.05;;;20.50;99.90;;;;;;4987027;28;20018;-58
2022/08/16 02:38:40;;;;;;;5.60;4.20;;;20.50;99.90;;;;;;4987592;28;20022;-57
2022/08/16 02:41:07;;;;;;;5.35;4.03;;;20.60;99.90;;;;;;4987536;28;20033;-57
2022/08/16 02:43:34;;;;;;;4.80;3.85;;;20.40;99.90;;;;;;4985304;28;20042;-57
2022/08/16 02:46:01;;;;;;;5.72;4.10;;;20.30;99.90;;;;;;4985142;28;20433;-56
2022/08/16 02:48:29;;;;;;;4.07;3.38;;;20.30;99.90;;;;;;4986971;28;20026;-57
2022/08/16 02:50:56;;;;;;;4.50;3.70;;;20.40;99.90;;;;;;4985210;28;20434;-57
2022/08/16 02:53:22;;;;;;;5.93;3.70;;;20.30;99.90;;;;;;4984691;28;20471;-56
2022/08/16 02:55:48;;;;;;;6.65;4.10;;;20.40;99.90;;;;;;4985791;28;20027;-57
2022/08/16 02:58:13;;;;;;;4.78;3.63;;;20.30;99.90;;;;;;4986913;28;20026;-58
2022/08/16 03:00:39;;;;;;;6.47;3.80;;;20.30;99.90;;;;;;4965426;28;20026;-56
2022/08/16 03:03:05;;;;;;;5.88;4.00;;;20.20;99.90;;;;;;4986361;28;20026;-57
2022/08/16 03:05:31;;;;;;;5.05;3.78;;;20.30;99.90;;;;;;4981001;28;20053;-57
2022/08/16 03:07:57;;;;;;;6.25;3.92;;;20.20;99.90;;;;;;5000707;28;20792;-58
2022/08/16 03:10:23;;;;;;;7.82;4.22;;;20.10;99.90;;;;;;4984566;28;20056;-57
2022/08/16 03:12:49;;;;;;;6.65;4.40;;;20.00;99.90;;;;;;4984648;28;20335;-58
2022/08/16 03:15:16;;;;;;;4.47;4.07;;;20.00;99.90;;;;;;4985870;28;20100;-58
2022/08/16 03:17:43;;;;;;;5.18;3.83;;;19.90;99.90;;;;;;4986290;28;20482;-56
2022/08/16 03:20:11;;;;;;;6.15;4.13;;;20.00;99.90;;;;;;4985464;28;20367;-56
2022/08/16 03:22:36;;;;;;;8.35;4.55;;;19.90;99.90;;;;;;4987147;28;20030;-56
2022/08/16 03:25:06;;;;;;;4.65;3.90;;;19.90;99.90;;;;;;4986573;28;20762;-57
2022/08/16 03:27:34;;;;;;;6.55;4.30;;;19.80;99.90;;;;;;4988156;28;20119;-56
2022/08/16 03:30:04;;;;;;;5.90;4.03;;;19.80;99.90;;;;;;4982664;28;20026;-57
2022/08/16 03:32:29;;;;;;;6.45;4.38;;;19.80;99.90;;;;;;4986598;28;20553;-56
2022/08/16 03:34:55;;;;;;;6.85;4.35;;;19.70;99.90;;;;;;4985610;28;20029;-57
2022/08/16 03:37:21;;;;;;;4.95;4.43;;;19.40;99.90;;;;;;4983271;28;20023;-57
2022/08/16 03:39:46;;;;;;;7.13;4.88;;;19.40;99.90;;;;;;4986038;28;20033;-57
2022/08/16 03:42:12;;;;;;;6.43;4.70;;;19.80;99.90;;;;;;4984631;28;20484;-57
2022/08/16 03:44:37;;;;;;;5.68;4.32;;;19.60;99.90;;;;;;4984701;28;20390;-57
2022/08/16 03:47:03;;;;;;;5.72;4.60;;;19.50;99.90;;;;;;4988326;28;20038;-57
2022/08/16 03:49:29;;;;;;;8.63;5.00;;;19.40;99.90;;;;;;4985794;28;20041;-57
2022/08/16 03:51:55;;;;;;;7.25;4.40;;;19.80;99.90;;;;;;4981752;28;20034;-57
2022/08/16 03:54:21;;;;;;;8.45;4.70;;;19.60;99.90;;;;;;4987166;28;20027;-56
2022/08/16 03:56:46;;;;;;;5.63;4.60;;;19.40;99.90;;;;;;4985328;28;20050;-58
2022/08/16 03:59:13;;;;;;;6.50;4.57;;;19.50;99.90;;;;;;4986348;28;20414;-57
2022/08/16 04:01:38;;;;;;;7.82;5.25;;;19.60;99.90;;;;;;4984582;28;20026;-57
2022/08/16 04:04:04;;;;;;;7.85;4.55;;;19.40;99.90;;;;;;4985835;28;20048;-57
2022/08/16 04:06:29;;;;;;;8.75;5.10;;;19.40;99.90;;;;;;4984817;28;20090;-57
2022/08/16 04:08:55;;;;;;;8.18;5.10;;;19.30;99.90;;;;;;4979219;28;20031;-56
2022/08/16 04:11:21;;;;;;;8.40;5.40;;;19.40;99.90;;;;;;4980990;28;20034;-57
2022/08/16 04:13:46;;;;;;;5.65;4.75;;;19.50;99.90;;;;;;4982276;28;20022;-57
2022/08/16 04:16:14;;;;;;;8.00;5.13;;;19.30;99.90;;;;;;4984641;28;20401;-56
2022/08/16 04:18:41;;;;;;;8.23;5.18;;;19.40;99.90;;;;;;4983139;28;20018;-57
2022/08/16 04:21:07;;;;;;;7.88;5.30;;;19.40;99.90;;;;;;4982465;28;20031;-56
2022/08/16 04:23:33;;;;;;;9.25;5.30;;;19.00;99.90;;;;;;4983486;28;20532;-57
2022/08/16 04:25:58;;;;;;;7.38;5.10;;;19.20;99.90;;;;;;4981244;28;20035;-56
2022/08/16 04:28:25;;;;;;;7.05;4.80;;;19.40;99.90;;;;;;4999381;28;20042;-57
2022/08/16 04:30:51;;;;;;;8.00;5.15;;;19.30;99.90;;;;;;4984645;28;20537;-56
2022/08/16 04:33:16;;;;;;;9.07;5.28;;;19.20;99.90;;;;;;4986394;28;20069;-56
2022/08/16 04:35:42;;;;;;;7.85;5.07;;;19.40;99.90;;;;;;4987030;28;20380;-56
2022/08/16 04:38:08;;;;;;;6.75;5.80;;;19.40;99.90;;;;;;4982325;28;20088;-57
2022/08/16 04:40:34;;;;;;;6.78;5.40;;;19.20;99.90;;;;;;4984639;28;20031;-55
2022/08/16 04:43:00;;;;;;;9.02;5.40;;;19.40;99.90;;;;;;4985772;28;20501;-57
2022/08/16 04:45:26;;;;;;;6.85;5.53;;;19.40;99.90;;;;;;4983926;28;20070;-57
2022/08/16 04:47:51;;;;;;;11.60;5.93;;;19.20;99.90;;;;;;4985602;28;20041;-56
2022/08/16 04:50:21;;;;;;;6.88;5.25;;;19.20;99.90;;;;;;4989397;28;20025;-57
2022/08/16 04:52:48;;;;;;;6.45;5.63;;;19.20;99.90;;;;;;4985834;28;20394;-57
2022/08/16 04:55:20;;;;;;;9.13;5.50;;;19.30;99.90;;;;;;4987142;28;20588;-56
2022/08/16 04:57:48;;;;;;;8.82;6.20;;;19.30;99.90;;;;;;4985978;28;20485;-56
2022/08/16 05:00:18;;;;;;;6.80;5.28;;;18.70;99.90;;;;;;4982991;28;20031;-56
2022/08/16 05:02:44;;;;;;;7.95;5.38;;;19.20;99.90;;;;;;4983270;28;20036;-57
2022/08/16 05:05:11;;;;;;;7.32;5.43;;;19.30;99.90;;;;;;4994552;28;20038;-57
2022/08/16 05:07:38;;;;;;;9.27;6.10;;;19.40;99.90;;;;;;4983599;28;20037;-57
2022/08/16 05:10:06;;;;;;;6.68;5.13;;;;;;;;;;4982397;28;20105;-57
2022/08/16 05:12:32;;;;;;;7.78;5.75;;;19.30;99.90;;;;;;4987117;28;20426;-57
2022/08/16 05:14:58;;;;;;;45.28;36.28;;;19.60;99.90;;;;;;4984842;28;20080;-54
2022/08/16 05:17:25;;;;;;;113.47;95.40;;;;;;;;;;4986067;28;20466;-57
2022/08/16 05:19:50;;;;;;;13.77;10.00;;;18.90;99.90;;;;;;4982957;28;20084;-57
2022/08/16 05:22:16;;;;;;;8.50;6.22;;;19.40;99.90;;;;;;4984384;28;20290;-59
2022/08/16 05:24:43;;;;;;;9.55;5.47;;;;;;;;;;4985888;28;20023;-58
2022/08/16 05:27:11;;;;;;;9.07;5.95;;;19.30;99.90;;;;;;4984408;28;20026;-58
2022/08/16 05:29:38;;;;;;;7.20;5.28;;;;;;;;;;4986298;28;20031;-57
2022/08/16 05:32:05;;;;;;;8.18;5.47;;;;;;;;;;4988414;28;20053;-59
2022/08/16 05:34:31;;;;;;;8.43;5.80;;;19.50;99.90;;;;;;4985917;28;20026;-58
2022/08/16 05:36:57;;;;;;;8.15;5.70;;;;;;;;;;4987334;28;20014;-58
2022/08/16 05:39:24;;;;;;;7.88;5.55;;;19.70;99.90;;;;;;4989812;28;20465;-57
2022/08/16 05:41:52;;;;;;;7.43;5.70;;;20.00;99.90;;;;;;4987061;28;20033;-59
2022/08/16 05:44:20;;;;;;;8.75;5.55;;;20.00;99.90;;;;;;4988999;28;20140;-59
2022/08/16 05:46:46;;;;;;;6.75;5.20;;;20.00;99.90;;;;;;4988776;28;20108;-59
2022/08/16 05:49:15;;;;;;;7.70;5.63;;;20.00;99.90;;;;;;4987148;28;20026;-59
2022/08/16 05:51:45;;;;;;;7.47;5.60;;;20.10;99.90;;;;;;4990044;28;20102;-58
2022/08/16 05:54:13;;;;;;;9.32;6.22;;;20.10;99.90;;;;;;4986338;28;20406;-57
2022/08/16 05:56:39;;;;;;;6.95;5.60;;;20.20;99.90;;;;;;4990757;28;20023;-59
2022/08/16 05:59:05;;;;;;;7.50;5.43;;;20.30;99.90;;;;;;4987389;28;20032;-58
2022/08/16 06:01:32;;;;;;;9.45;5.90;;;20.50;99.90;;;;;;4990228;28;20112;-59
2022/08/16 06:03:58;;;;;;;9.57;5.72;;;20.50;99.90;;;;;;4986637;28;20701;-58
2022/08/16 06:06:23;;;;;;;8.60;5.78;;;20.60;99.90;;;;;;4985041;28;20086;-58
2022/08/16 06:08:49;;;;;;;9.70;6.53;;;20.70;99.90;;;;;;4986754;28;20042;-58
2022/08/16 06:11:15;;;;;;;11.00;6.13;;;20.70;99.90;;;;;;4984620;28;20022;-58
2022/08/16 06:13:42;;;;;;;8.18;6.03;;;20.80;99.90;;;;;;4986949;28;20025;-58
2022/08/16 06:16:08;;;;;;;9.20;5.63;;;20.70;99.90;;;;;;4986598;28;20026;-57
2022/08/16 06:18:33;;;;;;;7.93;5.60;;;20.80;99.90;;;;;;4987482;28;20026;-56
2022/08/16 06:20:59;;;;;;;9.68;6.13;;;21.00;99.90;;;;;;4987805;28;20104;-58
2022/08/16 06:23:25;;;;;;;9.43;6.40;;;21.00;99.90;;;;;;4986067;28;20097;-57
2022/08/16 06:25:51;;;;;;;7.72;5.63;;;21.00;99.90;;;;;;4984527;28;20027;-57
2022/08/16 06:28:18;;;;;;;10.10;6.38;;;21.10;99.90;;;;;;4989004;28;20117;-57
2022/08/16 06:30:44;;;;;;;7.82;6.28;;;21.00;99.90;;;;;;4985431;28;20706;-57
2022/08/16 06:33:14;;;;;;;8.15;5.80;;;21.10;99.90;;;;;;4987305;28;20038;-57
2022/08/16 06:35:39;;;;;;;13.07;6.53;;;21.20;99.90;;;;;;4985757;28;20022;-58
2022/08/16 06:38:05;;;;;;;7.80;5.78;;;21.40;99.90;;;;;;4984113;28;20367;-58
2022/08/16 06:40:31;;;;;;;6.35;5.55;;;21.50;99.90;;;;;;4986592;28;20122;-57
2022/08/16 06:42:57;;;;;;;8.77;5.97;;;21.50;99.90;;;;;;4987150;28;20045;-57
2022/08/16 06:45:23;;;;;;;8.15;6.43;;;21.70;99.90;;;;;;4988932;28;20038;-57
2022/08/16 06:47:49;;;;;;;9.90;6.75;;;21.70;99.90;;;;;;4986805;28;20597;-56
2022/08/16 06:50:14;;;;;;;10.77;6.05;;;21.60;99.90;;;;;;4984983;28;20038;-57
2022/08/16 06:52:41;;;;;;;9.48;6.10;;;21.60;99.90;;;;;;4984191;28;20089;-59
2022/08/16 06:55:09;;;;;;;8.18;6.05;;;21.80;99.90;;;;;;4985203;28;20394;-58
2022/08/16 06:57:35;;;;;;;10.27;6.45;;;21.90;99.90;;;;;;4984990;28;20081;-58
2022/08/16 07:00:00;;;;;;;8.90;6.35;;;22.00;99.90;;;;;;4978833;28;20026;-58
2022/08/16 07:02:26;;;;;;;9.13;6.65;;;22.00;99.90;;;;;;4985711;28;21177;-58
2022/08/16 07:04:52;;;;;;;10.15;6.82;;;22.20;99.90;;;;;;4983844;28;20038;-59
2022/08/16 07:07:19;;;;;;;8.65;6.20;;;22.40;99.90;;;;;;4982742;28;20027;-58
2022/08/16 07:09:49;;;;;;;10.75;6.60;;;22.30;99.90;;;;;;4983547;28;20639;-59
2022/08/16 07:12:14;;;;;;;8.77;6.75;;;22.30;99.90;;;;;;4984720;28;20036;-59
2022/08/16 07:14:40;;;;;;;9.48;6.63;;;22.30;99.90;;;;;;4986307;28;20385;-59
2022/08/16 07:17:06;;;;;;;10.85;6.78;;;22.20;99.90;;;;;;4985944;28;20037;-58
2022/08/16 07:19:32;;;;;;;8.98;6.40;;;22.30;99.90;;;;;;4977746;28;20044;-59
2022/08/16 07:22:01;;;;;;;11.05;6.75;;;22.50;99.90;;;;;;4985999;28;20026;-59
2022/08/16 07:24:27;;;;;;;13.10;7.60;;;22.70;99.90;;;;;;4984991;28;20027;-59
2022/08/16 07:26:53;;;;;;;10.57;6.88;;;22.70;99.90;;;;;;4984535;28;20389;-60
2022/08/16 07:29:19;;;;;;;9.82;6.40;;;22.80;99.90;;;;;;4985096;28;20040;-60
2022/08/16 07:31:45;;;;;;;8.75;6.07;;;22.80;99.90;;;;;;4986943;28;20512;-59
2022/08/16 07:34:10;;;;;;;11.60;7.40;;;22.90;99.90;;;;;;4982643;28;20129;-59
2022/08/16 07:36:36;;;;;;;12.60;7.88;;;22.90;99.90;;;;;;4985992;28;20085;-59
2022/08/16 07:39:02;;;;;;;11.57;7.57;;;23.00;99.90;;;;;;4979641;28;20044;-59
2022/08/16 07:41:28;;;;;;;24.65;16.45;;;23.00;99.90;;;;;;4976854;28;20044;-57
2022/08/16 07:43:53;;;;;;;64.93;54.30;;;23.10;99.90;;;;;;4987767;28;20030;-57
2022/08/16 07:46:19;;;;;;;13.43;10.57;;;23.20;99.90;;;;;;4981924;28;20061;-59
2022/08/16 07:48:44;;;;;;;14.80;9.15;;;23.30;99.90;;;;;;4981597;28;20462;-58
2022/08/16 07:51:10;;;;;;;14.85;8.02;;;23.30;99.90;;;;;;4979887;28;20105;-59
2022/08/16 07:53:37;;;;;;;11.40;8.13;;;23.40;99.90;;;;;;4978148;28;20065;-58
2022/08/16 07:56:04;;;;;;;13.32;8.43;;;23.40;99.90;;;;;;4982695;28;20109;-59
2022/08/16 07:58:30;;;;;;;12.35;9.00;;;23.50;99.90;;;;;;4981865;28;20018;-59
2022/08/16 08:00:56;;;;;;;13.15;9.00;;;23.50;99.90;;;;;;4978950;28;20084;-58
2022/08/16 08:03:22;;;;;;;10.30;8.13;;;23.70;99.90;;;;;;4982751;28;20054;-59
2022/08/16 08:05:49;;;;;;;11.15;8.27;;;23.70;99.90;;;;;;4977709;28;20034;-59
2022/08/16 08:08:14;;;;;;;9.95;7.70;;;24.00;99.90;;;;;;4989799;28;20032;-59
2022/08/16 08:10:40;;;;;;;14.35;9.50;;;24.10;99.90;;;;;;4982021;28;20030;-60
2022/08/16 08:13:07;;;;;;;14.57;9.70;;;24.10;99.90;;;;;;4986508;28;20096;-59
2022/08/16 08:15:33;;;;;;;13.68;9.40;;;24.00;99.90;;;;;;4984536;28;20026;-59
2022/08/16 08:18:00;;;;;;;13.85;8.05;;;24.00;99.90;;;;;;4983330;28;20031;-59
2022/08/16 08:20:26;;;;;;;14.82;7.55;;;24.10;99.90;;;;;;4984448;28;20018;-59
2022/08/16 08:22:53;;;;;;;14.20;8.38;;;24.20;99.90;;;;;;4984302;28;20504;-59
2022/08/16 08:25:20;;;;;;;12.10;8.30;;;24.40;99.90;;;;;;4983424;28;20026;-59
2022/08/16 08:27:46;;;;;;;14.63;13.07;;;24.40;99.90;;;;;;4985495;28;20523;-59
2022/08/16 08:30:12;;;;;;;13.65;10.30;;;24.50;99.90;;;;;;4984490;28;20088;-59
2022/08/16 08:32:38;;;;;;;11.73;7.85;;;24.50;99.90;;;;;;4982043;28;20160;-59
2022/08/16 08:35:06;;;;;;;11.95;8.18;;;24.50;99.90;;;;;;4984940;28;20062;-59
2022/08/16 08:37:33;;;;;;;8.63;7.28;;;24.40;99.90;;;;;;4986586;28;20027;-58
2022/08/16 08:39:58;;;;;;;9.45;7.50;;;24.60;99.90;;;;;;4980948;28;20057;-59
2022/08/16 08:42:25;;;;;;;12.93;7.68;;;24.70;99.90;;;;;;4985934;28;20522;-59
2022/08/16 08:44:50;;;;;;;13.18;7.22;;;24.70;99.90;;;;;;4983444;28;20027;-59
2022/08/16 08:47:16;;;;;;;12.98;8.05;;;24.70;99.90;;;;;;4985475;28;20026;-60
2022/08/16 08:49:42;;;;;;;11.68;10.35;;;24.80;99.90;;;;;;4987639;28;20389;-59
2022/08/16 08:52:08;;;;;;;14.60;7.70;;;24.80;99.90;;;;;;4982972;28;20027;-59
2022/08/16 08:54:34;;;;;;;12.90;7.85;;;24.80;99.90;;;;;;4989167;28;20030;-60
2022/08/16 08:56:59;;;;;;;11.88;6.97;;;24.80;99.90;;;;;;4979416;28;20172;-59
2022/08/16 08:59:25;;;;;;;9.35;6.50;;;24.90;99.90;;;;;;4978047;28;20092;-59
2022/08/16 09:01:53;;;;;;;11.95;6.70;;;;;;;;;;4982675;28;20080;-59
2022/08/16 09:04:18;;;;;;;14.40;6.72;;;25.20;99.90;;;;;;4984845;28;20030;-59
2022/08/16 09:06:44;;;;;;;9.55;7.70;;;25.30;99.90;;;;;;4979896;28;20034;-60
2022/08/16 09:09:10;;;;;;;10.73;6.78;;;25.20;99.90;;;;;;4983719;28;20030;-60
2022/08/16 09:11:37;;;;;;;16.33;7.63;;;25.20;99.90;;;;;;4982087;28;20728;-60
2022/08/16 09:14:04;;;;;;;11.07;7.18;;;25.50;99.90;;;;;;4985725;28;20397;-59
2022/08/16 09:16:31;;;;;;;14.57;8.05;;;25.60;99.90;;;;;;4984668;28;20022;-60
2022/08/16 09:18:58;;;;;;;11.13;6.72;;;25.50;99.90;;;;;;4984023;28;20030;-59
2022/08/16 09:21:23;;;;;;;11.65;6.28;;;25.70;99.90;;;;;;4983986;28;20466;-59
2022/08/16 09:23:49;;;;;;;9.30;6.03;;;25.70;99.90;;;;;;4984390;28;20109;-59
2022/08/16 09:26:14;;;;;;;9.25;6.35;;;25.70;99.90;;;;;;4981726;28;20035;-59
2022/08/16 09:28:42;;;;;;;8.85;6.43;;;25.80;99.90;;;;;;4983472;28;20125;-59
2022/08/16 09:31:07;;;;;;;11.60;6.30;;;25.80;99.90;;;;;;4985395;28;20034;-60
2022/08/16 09:33:34;;;;;;;10.80;6.18;;;25.80;99.90;;;;;;4983586;28;20049;-60
2022/08/16 09:36:00;;;;;;;13.15;6.50;;;25.80;99.90;;;;;;4984352;28;20022;-59
2022/08/16 09:38:25;;;;;;;13.45;6.90;;;25.90;99.90;;;;;;4984586;28;20050;-59
2022/08/16 09:40:51;;;;;;;9.80;6.20;;;25.90;99.90;;;;;;4982628;28;20099;-60
2022/08/16 09:43:19;;;;;;;11.07;6.93;;;25.90;99.90;;;;;;4980308;28;20109;-60
2022/08/16 09:45:45;;;;;;;8.00;5.80;;;25.90;99.90;;;;;;4983570;28;20037;-59
2022/08/16 09:48:13;;;;;;;23.80;5.82;;;25.90;99.90;;;;;;4983673;28;20080;-60
2022/08/16 09:50:40;;;;;;;12.38;5.80;;;26.10;99.90;;;;;;4978270;28;20023;-59
2022/08/16 09:53:15;;;;;;;13.10;6.55;;;26.20;99.90;;;;;;4985976;28;20125;-61
2022/08/16 09:55:42;;;;;;;9.73;6.30;;;26.40;99.90;;;;;;4979836;28;20025;-60
2022/08/16 09:58:08;;;;;;;9.43;6.10;;;26.40;99.90;;;;;;4985351;28;20051;-59
2022/08/16 10:00:34;;;;;;;8.02;5.93;;;26.50;99.90;;;;;;4980874;28;20077;-59
2022/08/16 10:03:00;;;;;;;11.02;5.80;;;26.50;99.90;;;;;;4983769;28;20118;-59
2022/08/16 10:05:25;;;;;;;8.77;5.63;;;26.60;99.90;;;;;;4983059;28;20097;-60
2022/08/16 10:07:51;;;;;;;8.43;5.75;;;26.60;99.90;;;;;;4982737;28;20327;-60
2022/08/16 10:10:22;;;;;;;10.00;5.90;;;26.80;99.90;;;;;;4977543;28;20463;-59
2022/08/16 10:15:33;;;;;;;11.15;5.70;;;26.90;99.90;;;;;;4983565;28;20096;-59
2022/08/16 10:17:59;;;;;;;8.27;5.25;;;27.10;99.90;;;;;;4987035;28;20592;-60
2022/08/16 10:20:26;;;;;;;7.80;5.38;;;26.90;99.90;;;;;;4990118;28;20044;-60
2022/08/16 10:22:52;;;;;;;9.13;5.47;;;26.90;99.90;;;;;;4988047;28;20018;-60
2022/08/16 10:25:18;;;;;;;10.70;5.38;;;26.80;99.90;;;;;;4987239;28;20019;-59
2022/08/16 10:27:46;;;;;;;9.73;5.47;;;26.80;99.90;;;;;;4991049;28;20034;-59
2022/08/16 10:30:12;;;;;;;9.88;5.22;;;26.80;99.90;;;;;;4983442;28;20088;-60
2022/08/16 10:32:37;;;;;;;9.27;5.43;;;26.80;99.90;;;;;;4986144;28;20168;-60
2022/08/16 10:35:04;;;;;;;54.38;45.10;;;26.80;99.90;;;;;;4984701;28;20914;-60
2022/08/16 10:37:30;;;;;;;46.67;38.95;;;26.90;99.90;;;;;;4983183;28;20031;-59
2022/08/16 10:39:55;;;;;;;7.28;5.90;;;27.10;99.90;;;;;;4987526;28;20042;-59
2022/08/16 10:42:21;;;;;;;10.80;5.38;;;27.10;99.90;;;;;;4983487;28;20018;-60
2022/08/16 10:44:48;;;;;;;5.25;4.75;;;27.20;99.90;;;;;;4983628;28;20031;-59
2022/08/16 10:47:14;;;;;;;7.70;6.00;;;27.30;99.90;;;;;;4984163;28;20034;-60
2022/08/16 10:49:39;;;;;;;9.98;5.60;;;27.30;99.90;;;;;;4982237;28;20101;-59
2022/08/16 10:52:07;;;;;;;14.07;5.75;;;27.30;99.90;;;;;;4986519;28;20549;-59
2022/08/16 10:54:33;;;;;;;8.90;5.63;;;27.40;99.90;;;;;;4983850;28;20022;-59
2022/08/16 10:57:01;;;;;;;44.30;34.78;;;27.40;99.90;;;;;;4978606;28;20462;-60
2022/08/16 10:59:30;;;;;;;10.57;5.40;;;27.60;99.90;;;;;;4980841;28;20070;-59
2022/08/16 11:01:56;;;;;;;8.85;5.38;;;27.60;99.90;;;;;;4980300;28;20022;-59
2022/08/16 11:04:22;;;;;;;9.32;4.88;;;27.50;99.90;;;;;;4984947;28;20164;-60
2022/08/16 11:06:47;;;;;;;9.80;5.88;;;27.50;99.90;;;;;;4982115;28;20038;-59
2022/08/16 11:09:13;;;;;;;6.28;5.55;;;27.50;99.90;;;;;;4979095;28;20034;-58
2022/08/16 11:11:39;;;;;;;8.95;4.88;;;27.60;99.90;;;;;;4981709;28;20406;-59
2022/08/16 11:14:05;;;;;;;8.48;5.57;;;27.80;99.90;;;;;;4986020;28;20022;-59
2022/08/16 11:16:32;;;;;;;10.10;4.93;;;27.90;99.90;;;;;;4984267;28;20022;-59
2022/08/16 11:18:57;;;;;;;8.13;5.15;;;27.90;99.90;;;;;;4987366;28;20037;-59
2022/08/16 11:21:24;;;;;;;12.10;4.90;;;27.90;99.90;;;;;;4983584;28;20030;-59
2022/08/16 11:23:51;;;;;;;9.45;4.55;;;27.80;99.90;;;;;;4980947;28;20054;-60
2022/08/16 11:26:16;;;;;;;5.40;4.40;;;27.90;99.90;;;;;;4982552;28;20026;-60
2022/08/16 11:28:42;;;;;;;10.55;4.50;;;27.70;99.90;;;;;;4981174;28;20026;-59
2022/08/16 11:31:08;;;;;;;12.75;5.20;;;27.70;99.90;;;;;;4981903;28;20030;-59
2022/08/16 11:33:34;;;;;;;7.03;4.32;;;27.70;99.90;;;;;;4985015;28;20092;-60
2022/08/16 11:36:00;;;;;;;10.98;4.50;;;27.70;99.90;;;;;;4984658;28;20533;-59
2022/08/16 11:38:25;;;;;;;7.72;4.55;;;27.90;99.90;;;;;;4983930;28;20050;-60
2022/08/16 11:40:56;;;;;;;8.90;4.45;;;28.10;99.90;;;;;;4985748;28;20034;-60
2022/08/16 11:43:25;;;;;;;5.30;3.92;;;28.50;99.90;;;;;;4980959;28;20033;-60
2022/08/16 11:45:52;;;;;;;6.22;3.85;;;28.40;99.90;;;;;;4980464;28;20037;-60
2022/08/16 11:48:18;;;;;;;7.97;4.05;;;28.40;99.90;;;;;;4982985;28;21055;-59
2022/08/16 11:50:45;;;;;;;7.88;4.03;;;28.50;99.90;;;;;;4984319;28;20112;-59
2022/08/16 11:53:11;;;;;;;6.97;5.28;;;28.60;99.90;;;;;;4980744;28;20045;-58
2022/08/16 11:55:38;;;;;;;6.30;3.95;;;28.60;99.90;;;;;;4983522;28;20038;-59
2022/08/16 11:58:05;;;;;;;5.97;3.53;;;28.70;99.90;;;;;;4987977;28;20377;-59
2022/08/16 12:00:32;;;;;;;7.35;4.45;;;28.50;99.90;;;;;;4993525;28;20032;-59
2022/08/16 12:02:57;;;;;;;7.90;3.95;;;28.50;99.90;;;;;;4980636;28;20034;-59
2022/08/16 12:05:25;;;;;;;9.55;4.68;;;28.30;99.90;;;;;;4979934;28;20089;-59
2022/08/16 12:07:52;;;;;;;11.55;4.20;;;28.20;99.90;;;;;;4984325;28;20529;-60
2022/08/16 12:10:19;;;;;;;6.22;4.32;;;28.20;99.90;;;;;;4978646;28;20034;-58
2022/08/16 12:12:45;;;;;;;6.13;3.97;;;28.30;99.90;;;;;;4978542;28;20030;-59
2022/08/16 12:15:13;;;;;;;10.05;4.40;;;28.30;99.90;;;;;;4982029;28;20479;-58
2022/08/16 12:17:40;;;;;;;7.53;4.30;;;28.30;99.90;;;;;;4982092;28;20429;-58
2022/08/16 12:20:17;;;;;;;8.48;4.60;;;28.20;99.90;;;;;;4981182;28;20026;-59
2022/08/16 12:22:43;;;;;;;7.90;4.68;;;28.10;99.90;;;;;;4982446;28;20494;-59
2022/08/16 12:25:12;;;;;;;9.75;4.40;;;28.20;99.90;;;;;;4990866;28;20042;-59
2022/08/16 12:27:39;;;;;;;10.55;4.07;;;28.20;99.90;;;;;;4981642;28;20041;-59
2022/08/16 12:30:08;;;;;;;7.32;4.15;;;28.00;99.90;;;;;;4981297;28;20041;-59
2022/08/16 12:32:34;;;;;;;5.93;4.15;;;28.10;99.90;;;;;;4985965;28;20577;-59
2022/08/16 12:35:00;;;;;;;6.80;4.10;;;28.20;99.90;;;;;;4982920;28;20116;-59
2022/08/16 12:37:26;;;;;;;6.53;4.18;;;28.30;99.90;;;;;;4983175;28;20032;-58
2022/08/16 12:39:54;;;;;;;5.13;3.92;;;28.40;99.90;;;;;;4983948;28;20234;-60
2022/08/16 12:42:21;;;;;;;7.53;4.75;;;28.40;99.90;;;;;;4981943;28;20023;-59
2022/08/16 12:44:48;;;;;;;8.38;4.40;;;28.60;99.90;;;;;;4982531;28;20029;-58